sensor_id;sensor_type;location;lat;lon;timestamp;pressure;altitude;pressure_sealevel;temperature;humidity
72925;BME280;61070;50.794;7.054;2023-04-30T00:01:28;101418.09;;;8.94;100.00
72925;BME280;61070;50.794;7.054;2023-04-30T00:03:54;101421.59;;;8.90;100.00
72925;BME280;61070;50.794;7.054;2023-04-30T00:06:19;101419.91;;;8.96;100.00
72925;BME280;61070;50.794;7.054;2023-04-30T00:08:45;101420.78;;;8.97;100.00
72925;BME280;61070;50.794;7.054;2023-04-30T00:11:10;101423.34;;;8.86;100.00
72925;BME280;61070;50.794;7.054;2023-04-30T00:13:35;101432.09;;;8.79;100.00
72925;BME280;61070;50.794;7.054;2023-04-30T00:16:01;101430.28;;;8.72;100.00
72925;BME280;61070;50.794;7.054;2023-04-30T00:18:26;101435.53;;;8.66;100.00
72925;BME280;61070;50.794;7.054;2023-04-30T00:20:51;101427.63;;;8.69;100.00
72925;BME280;61070;50.794;7.054;2023-04-30T00:23:17;101431.13;;;8.63;100.00
72925;BME280;61070;50.794;7.054;2023-04-30T00:25:42;101436.41;;;8.63;100.00
72925;BME280;61070;50.794;7.054;2023-04-30T00:28:08;101439.94;;;8.68;100.00
72925;BME280;61070;50.794;7.054;2023-04-30T00:30:33;101435.50;;;8.63;100.00
72925;BME280;61070;50.794;7.054;2023-04-30T00:32:58;101433.69;;;8.56;100.00
72925;BME280;61070;50.794;7.054;2023-04-30T00:35:23;101436.25;;;8.48;100.00
72925;BME280;61070;50.794;7.054;2023-04-30T00:37:49;101434.47;;;8.42;100.00
72925;BME280;61070;50.794;7.054;2023-04-30T00:40:15;101444.06;;;8.36;100.00
72925;BME280;61070;50.794;7.054;2023-04-30T00:42:40;101438.84;;;8.42;100.00
72925;BME280;61070;50.794;7.054;2023-04-30T00:45:06;101445.03;;;8.45;100.00
72925;BME280;61070;50.794;7.054;2023-04-30T00:47:32;101437.03;;;8.36;100.00
72925;BME280;61070;50.794;7.054;2023-04-30T00:49:57;101435.19;;;8.31;100.00
72925;BME280;61070;50.794;7.054;2023-04-30T00:52:23;101443.91;;;8.22;100.00
72925;BME280;61070;50.794;7.054;2023-04-30T00:54:48;101436.88;;;8.21;100.00
72925;BME280;61070;50.794;7.054;2023-04-30T00:57:14;101443.91;;;8.21;100.00
72925;BME280;61070;50.794;7.054;2023-04-30T00:59:40;101435.94;;;8.16;100.00
72925;BME280;61070;50.794;7.054;2023-04-30T01:02:07;101445.63;;;8.15;100.00
72925;BME280;61070;50.794;7.054;2023-04-30T01:04:32;101442.88;;;8.05;100.00
72925;BME280;61070;50.794;7.054;2023-04-30T01:06:58;101444.56;;;8.00;100.00
72925;BME280;61070;50.794;7.054;2023-04-30T01:09:26;101435.72;;;7.93;100.00
72925;BME280;61070;50.794;7.054;2023-04-30T01:12:11;101438.28;;;7.87;100.00
72925;BME280;61070;50.794;7.054;2023-04-30T01:17:33;101443.41;;;7.73;100.00
72925;BME280;61070;50.794;7.054;2023-04-30T01:20:00;101435.50;;;7.76;100.00
72925;BME280;61070;50.794;7.054;2023-04-30T01:25:06;101442.44;;;7.70;100.00
72925;BME280;61070;50.794;7.054;2023-04-30T01:30:35;101437.16;;;7.67;100.00
72925;BME280;61070;50.794;7.054;2023-04-30T01:33:02;101439.75;;;7.62;100.00
72925;BME280;61070;50.794;7.054;2023-04-30T01:44:23;101453.72;;;7.55;100.00
72925;BME280;61070;50.794;7.054;2023-04-30T01:47:33;101441.41;;;7.54;100.00
72925;BME280;61070;50.794;7.054;2023-04-30T01:52:50;101443.16;;;7.55;100.00
72925;BME280;61070;50.794;7.054;2023-04-30T01:55:36;101437.09;;;7.59;100.00
72925;BME280;61070;50.794;7.054;2023-04-30T01:58:09;101441.41;;;7.54;100.00
72925;BME280;61070;50.794;7.054;2023-04-30T02:00:36;101445.78;;;7.53;100.00
72925;BME280;61070;50.794;7.054;2023-04-30T02:03:02;101436.00;;;7.46;100.00
72925;BME280;61070;50.794;7.054;2023-04-30T02:05:27;101440.41;;;7.46;100.00
72925;BME280;61070;50.794;7.054;2023-04-30T02:07:53;101446.53;;;7.45;100.00
72925;BME280;61070;50.794;7.054;2023-04-30T02:10:21;101451.75;;;7.39;100.00
72925;BME280;61070;50.794;7.054;2023-04-30T02:12:46;101460.22;;;7.15;100.00
72925;BME280;61070;50.794;7.054;2023-04-30T02:15:12;101447.91;;;7.15;100.00
72925;BME280;61070;50.794;7.054;2023-04-30T02:17:37;101446.06;;;7.08;100.00
72925;BME280;61070;50.794;7.054;2023-04-30T02:20:02;101446.88;;;7.04;100.00
72925;BME280;61070;50.794;7.054;2023-04-30T02:22:28;101457.34;;;7.01;100.00
72925;BME280;61070;50.794;7.054;2023-04-30T02:24:53;101453.78;;;6.97;100.00
72925;BME280;61070;50.794;7.054;2023-04-30T02:27:21;101459.91;;;6.95;100.00
72925;BME280;61070;50.794;7.054;2023-04-30T02:29:47;101456.41;;;6.94;100.00
72925;BME280;61070;50.794;7.054;2023-04-30T02:32:13;101453.72;;;6.91;100.00
72925;BME280;61070;50.794;7.054;2023-04-30T02:34:39;101459.81;;;6.89;100.00
72925;BME280;61070;50.794;7.054;2023-04-30T02:37:04;101458.00;;;6.85;100.00
72925;BME280;61070;50.794;7.054;2023-04-30T02:39:30;101457.97;;;6.83;100.00
72925;BME280;61070;50.794;7.054;2023-04-30T02:41:55;101459.69;;;6.80;100.00
72925;BME280;61070;50.794;7.054;2023-04-30T02:44:20;101457.06;;;6.80;100.00
72925;BME280;61070;50.794;7.054;2023-04-30T02:46:45;101454.34;;;6.77;100.00
72925;BME280;61070;50.794;7.054;2023-04-30T02:49:11;101467.50;;;6.77;100.00
72925;BME280;61070;50.794;7.054;2023-04-30T02:51:36;101464.84;;;6.75;100.00
72925;BME280;61070;50.794;7.054;2023-04-30T02:54:01;101463.97;;;6.73;100.00
72925;BME280;61070;50.794;7.054;2023-04-30T02:56:26;101461.31;;;6.71;100.00
72925;BME280;61070;50.794;7.054;2023-04-30T02:58:52;101457.78;;;6.69;100.00
72925;BME280;61070;50.794;7.054;2023-04-30T03:01:18;101470.09;;;6.74;100.00
72925;BME280;61070;50.794;7.054;2023-04-30T03:03:43;101456.94;;;6.74;100.00
72925;BME280;61070;50.794;7.054;2023-04-30T03:06:08;101466.53;;;6.68;100.00
72925;BME280;61070;50.794;7.054;2023-04-30T03:08:33;101463.84;;;6.67;100.00
72925;BME280;61070;50.794;7.054;2023-04-30T03:10:59;101461.25;;;6.68;100.00
72925;BME280;61070;50.794;7.054;2023-04-30T03:13:24;101467.47;;;6.72;100.00
72925;BME280;61070;50.794;7.054;2023-04-30T03:15:58;101455.03;;;6.65;100.00
72925;BME280;61070;50.794;7.054;2023-04-30T03:18:24;101468.16;;;6.62;100.00
72925;BME280;61070;50.794;7.054;2023-04-30T03:20:49;101461.13;;;6.61;100.00
72925;BME280;61070;50.794;7.054;2023-04-30T03:23:15;101459.34;;;6.58;100.00
72925;BME280;61070;50.794;7.054;2023-04-30T03:25:40;101454.03;;;6.57;100.00
72925;BME280;61070;50.794;7.054;2023-04-30T03:28:05;101451.47;;;6.61;100.00
72925;BME280;61070;50.794;7.054;2023-04-30T03:30:30;101451.44;;;6.58;100.00
72925;BME280;61070;50.794;7.054;2023-04-30T03:32:56;101450.66;;;6.65;100.00
72925;BME280;61070;50.794;7.054;2023-04-30T03:35:21;101459.50;;;6.69;100.00
72925;BME280;61070;50.794;7.054;2023-04-30T03:37:46;101454.41;;;6.80;100.00
72925;BME280;61070;50.794;7.054;2023-04-30T03:40:12;101447.47;;;6.85;100.00
72925;BME280;61070;50.794;7.054;2023-04-30T03:42:37;101449.38;;;6.95;100.00
72925;BME280;61070;50.794;7.054;2023-04-30T03:45:03;101454.78;;;7.04;100.00
72925;BME280;61070;50.794;7.054;2023-04-30T03:47:28;101457.53;;;7.13;100.00
72925;BME280;61070;50.794;7.054;2023-04-30T03:49:53;101454.06;;;7.16;100.00
72925;BME280;61070;50.794;7.054;2023-04-30T03:52:20;101469.00;;;7.15;100.00
72925;BME280;61070;50.794;7.054;2023-04-30T03:54:46;101462.75;;;7.10;100.00
72925;BME280;61070;50.794;7.054;2023-04-30T03:57:11;101463.41;;;6.94;100.00
72925;BME280;61070;50.794;7.054;2023-04-30T03:59:38;101460.66;;;6.86;100.00
72925;BME280;61070;50.794;7.054;2023-04-30T04:02:04;101459.75;;;6.84;100.00
72925;BME280;61070;50.794;7.054;2023-04-30T04:04:30;101459.56;;;6.74;100.00
72925;BME280;61070;50.794;7.054;2023-04-30T04:06:56;101458.63;;;6.68;100.00
72925;BME280;61070;50.794;7.054;2023-04-30T04:09:21;101465.03;;;6.86;100.00
72925;BME280;61070;50.794;7.054;2023-04-30T04:11:46;101466.81;;;6.88;100.00
72925;BME280;61070;50.794;7.054;2023-04-30T04:14:12;101465.91;;;6.86;100.00
72925;BME280;61070;50.794;7.054;2023-04-30T04:16:37;101459.75;;;6.86;100.00
72925;BME280;61070;50.794;7.054;2023-04-30T04:19:03;101461.63;;;6.91;100.00
72925;BME280;61070;50.794;7.054;2023-04-30T04:21:28;101460.66;;;6.86;100.00
72925;BME280;61070;50.794;7.054;2023-04-30T04:23:53;101459.72;;;6.83;100.00
72925;BME280;61070;50.794;7.054;2023-04-30T04:26:19;101463.16;;;6.79;100.00
72925;BME280;61070;50.794;7.054;2023-04-30T04:28:46;101465.78;;;6.79;100.00
72925;BME280;61070;50.794;7.054;2023-04-30T04:31:12;101470.16;;;6.77;100.00
72925;BME280;61070;50.794;7.054;2023-04-30T04:33:37;101473.59;;;6.72;100.00
72925;BME280;61070;50.794;7.054;2023-04-30T04:36:03;101476.28;;;6.77;100.00
72925;BME280;61070;50.794;7.054;2023-04-30T04:38:28;101470.22;;;6.80;100.00
72925;BME280;61070;50.794;7.054;2023-04-30T04:40:54;101470.25;;;6.83;100.00
72925;BME280;61070;50.794;7.054;2023-04-30T04:43:20;101469.31;;;6.79;100.00
72925;BME280;61070;50.794;7.054;2023-04-30T04:45:46;101477.28;;;6.84;100.00
72925;BME280;61070;50.794;7.054;2023-04-30T04:48:12;101479.97;;;6.87;100.00
72925;BME280;61070;50.794;7.054;2023-04-30T04:50:37;101479.22;;;6.94;100.00
72925;BME280;61070;50.794;7.054;2023-04-30T04:53:03;101476.38;;;6.82;100.00
72925;BME280;61070;50.794;7.054;2023-04-30T04:55:28;101473.84;;;6.88;100.00
72925;BME280;61070;50.794;7.054;2023-04-30T04:57:53;101470.34;;;6.89;100.00
72925;BME280;61070;50.794;7.054;2023-04-30T05:00:19;101485.34;;;6.93;100.00
72925;BME280;61070;50.794;7.054;2023-04-30T05:02:46;101477.47;;;6.96;100.00
72925;BME280;61070;50.794;7.054;2023-04-30T05:05:11;101485.56;;;7.07;100.00
72925;BME280;61070;50.794;7.054;2023-04-30T05:07:36;101484.69;;;7.09;100.00
72925;BME280;61070;50.794;7.054;2023-04-30T05:10:02;101483.97;;;7.18;100.00
72925;BME280;61070;50.794;7.054;2023-04-30T05:12:27;101493.66;;;7.22;100.00
72925;BME280;61070;50.794;7.054;2023-04-30T05:14:52;101491.91;;;7.22;100.00
72925;BME280;61070;50.794;7.054;2023-04-30T05:17:18;101492.00;;;7.25;100.00
72925;BME280;61070;50.794;7.054;2023-04-30T05:19:43;101503.31;;;7.21;100.00
72925;BME280;61070;50.794;7.054;2023-04-30T05:22:09;101511.38;;;7.30;100.00
72925;BME280;61070;50.794;7.054;2023-04-30T05:24:34;101506.13;;;7.34;100.00
72925;BME280;61070;50.794;7.054;2023-04-30T05:27:00;101515.00;;;7.37;100.00
72925;BME280;61070;50.794;7.054;2023-04-30T05:29:27;101516.84;;;7.46;100.00
72925;BME280;61070;50.794;7.054;2023-04-30T05:31:52;101508.06;;;7.45;100.00
72925;BME280;61070;50.794;7.054;2023-04-30T05:34:18;101514.31;;;7.53;100.00
72925;BME280;61070;50.794;7.054;2023-04-30T05:36:43;101523.22;;;7.60;100.00
72925;BME280;61070;50.794;7.054;2023-04-30T05:39:09;101532.78;;;7.55;100.00
72925;BME280;61070;50.794;7.054;2023-04-30T05:41:34;101535.44;;;7.56;100.00
72925;BME280;61070;50.794;7.054;2023-04-30T05:44:00;101539.97;;;7.65;100.00
72925;BME280;61070;50.794;7.054;2023-04-30T05:46:27;101541.03;;;7.81;100.00
72925;BME280;61070;50.794;7.054;2023-04-30T05:48:52;101541.03;;;7.79;100.00
72925;BME280;61070;50.794;7.054;2023-04-30T05:51:17;101540.09;;;7.74;100.00
72925;BME280;61070;50.794;7.054;2023-04-30T05:53:42;101537.50;;;7.79;100.00
72925;BME280;61070;50.794;7.054;2023-04-30T05:56:08;101535.72;;;7.75;100.00
72925;BME280;61070;50.794;7.054;2023-04-30T05:58:33;101536.91;;;8.00;100.00
72925;BME280;61070;50.794;7.054;2023-04-30T06:00:58;101533.50;;;8.10;100.00
72925;BME280;61070;50.794;7.054;2023-04-30T06:03:24;101535.28;;;8.14;100.00
72925;BME280;61070;50.794;7.054;2023-04-30T06:05:49;101529.22;;;8.21;100.00
72925;BME280;61070;50.794;7.054;2023-04-30T06:08:15;101520.63;;;8.36;100.00
72925;BME280;61070;50.794;7.054;2023-04-30T06:10:40;101538.16;;;8.32;100.00
72925;BME280;61070;50.794;7.054;2023-04-30T06:13:06;101521.34;;;8.24;100.00
72925;BME280;61070;50.794;7.054;2023-04-30T06:15:31;101524.69;;;8.08;100.00
72925;BME280;61070;50.794;7.054;2023-04-30T06:17:57;101523.97;;;8.23;100.00
72925;BME280;61070;50.794;7.054;2023-04-30T06:20:23;101512.75;;;8.39;100.00
72925;BME280;61070;50.794;7.054;2023-04-30T06:22:48;101515.50;;;8.50;100.00
72925;BME280;61070;50.794;7.054;2023-04-30T06:25:13;101511.06;;;8.49;100.00
72925;BME280;61070;50.794;7.054;2023-04-30T06:27:38;101514.75;;;8.63;100.00
72925;BME280;61070;50.794;7.054;2023-04-30T06:30:04;101514.66;;;8.57;100.00
72925;BME280;61070;50.794;7.054;2023-04-30T06:32:30;101521.81;;;8.70;100.00
72925;BME280;61070;50.794;7.054;2023-04-30T06:34:55;101521.91;;;8.79;100.00
72925;BME280;61070;50.794;7.054;2023-04-30T06:37:20;101512.31;;;8.87;100.00
72925;BME280;61070;50.794;7.054;2023-04-30T06:39:46;101519.44;;;8.97;100.00
72925;BME280;61070;50.794;7.054;2023-04-30T06:42:11;101513.34;;;9.08;100.00
72925;BME280;61070;50.794;7.054;2023-04-30T06:44:36;101517.78;;;9.10;100.00
72925;BME280;61070;50.794;7.054;2023-04-30T06:47:02;101520.50;;;9.25;100.00
72925;BME280;61070;50.794;7.054;2023-04-30T06:49:27;101531.13;;;9.33;100.00
72925;BME280;61070;50.794;7.054;2023-04-30T06:51:52;101513.47;;;9.26;100.00
72925;BME280;61070;50.794;7.054;2023-04-30T06:54:19;101525.84;;;9.30;100.00
72925;BME280;61070;50.794;7.054;2023-04-30T06:56:47;101523.13;;;9.22;100.00
72925;BME280;61070;50.794;7.054;2023-04-30T06:59:12;101518.88;;;9.50;100.00
72925;BME280;61070;50.794;7.054;2023-04-30T07:01:37;101519.00;;;9.67;100.00
72925;BME280;61070;50.794;7.054;2023-04-30T07:04:03;101519.88;;;9.65;100.00
72925;BME280;61070;50.794;7.054;2023-04-30T07:06:28;101510.94;;;9.49;100.00
72925;BME280;61070;50.794;7.054;2023-04-30T07:08:54;101504.84;;;9.59;100.00
72925;BME280;61070;50.794;7.054;2023-04-30T07:11:20;101505.75;;;9.66;100.00
72925;BME280;61070;50.794;7.054;2023-04-30T07:13:45;101503.19;;;9.76;100.00
72925;BME280;61070;50.794;7.054;2023-04-30T07:16:10;101498.75;;;9.78;100.00
72925;BME280;61070;50.794;7.054;2023-04-30T07:18:36;101506.69;;;9.78;100.00
72925;BME280;61070;50.794;7.054;2023-04-30T07:21:02;101512.88;;;9.76;100.00
72925;BME280;61070;50.794;7.054;2023-04-30T07:23:27;101510.28;;;9.92;100.00
72925;BME280;61070;50.794;7.054;2023-04-30T07:25:53;101508.56;;;9.99;100.00
72925;BME280;61070;50.794;7.054;2023-04-30T07:28:18;101512.09;;;10.00;100.00
72925;BME280;61070;50.794;7.054;2023-04-30T07:30:43;101507.72;;;10.18;100.00
72925;BME280;61070;50.794;7.054;2023-04-30T07:33:08;101517.50;;;10.41;100.00
72925;BME280;61070;50.794;7.054;2023-04-30T07:35:34;101514.00;;;10.42;100.00
72925;BME280;61070;50.794;7.054;2023-04-30T07:37:59;101506.97;;;10.56;100.00
72925;BME280;61070;50.794;7.054;2023-04-30T07:40:25;101504.31;;;10.77;100.00
72925;BME280;61070;50.794;7.054;2023-04-30T07:42:50;101503.44;;;10.82;100.00
72925;BME280;61070;50.794;7.054;2023-04-30T07:45:15;101499.03;;;10.79;98.73
72925;BME280;61070;50.794;7.054;2023-04-30T07:47:40;101499.00;;;10.97;98.45
72925;BME280;61070;50.794;7.054;2023-04-30T07:50:06;101502.53;;;11.08;96.53
72925;BME280;61070;50.794;7.054;2023-04-30T07:52:31;101500.75;;;11.26;96.80
72925;BME280;61070;50.794;7.054;2023-04-30T07:54:57;101506.06;;;11.06;96.00
72925;BME280;61070;50.794;7.054;2023-04-30T07:57:22;101506.03;;;11.18;95.11
72925;BME280;61070;50.794;7.054;2023-04-30T07:59:47;101504.22;;;11.48;95.17
72925;BME280;61070;50.794;7.054;2023-04-30T08:02:13;101500.72;;;11.46;94.52
72925;BME280;61070;50.794;7.054;2023-04-30T08:04:38;101496.25;;;11.54;95.73
72925;BME280;61070;50.794;7.054;2023-04-30T08:07:03;101496.19;;;11.72;93.97
72925;BME280;61070;50.794;7.054;2023-04-30T08:09:29;101492.59;;;11.94;95.28
72925;BME280;61070;50.794;7.054;2023-04-30T08:11:55;101511.09;;;12.13;94.27
72925;BME280;61070;50.794;7.054;2023-04-30T08:14:20;101488.03;;;12.16;91.47
72925;BME280;61070;50.794;7.054;2023-04-30T08:16:46;101497.59;;;12.43;87.83
72925;BME280;61070;50.794;7.054;2023-04-30T08:19:11;101498.50;;;12.44;87.69
72925;BME280;61070;50.794;7.054;2023-04-30T08:21:37;101501.78;;;12.76;88.11
72925;BME280;61070;50.794;7.054;2023-04-30T08:24:02;101491.13;;;12.79;86.05
72925;BME280;61070;50.794;7.054;2023-04-30T08:26:28;101490.16;;;12.91;85.04
72925;BME280;61070;50.794;7.054;2023-04-30T08:28:53;101486.50;;;13.01;81.71
72925;BME280;61070;50.794;7.054;2023-04-30T08:31:18;101490.78;;;13.25;79.46
72925;BME280;61070;50.794;7.054;2023-04-30T08:33:44;101489.81;;;13.31;80.11
72925;BME280;61070;50.794;7.054;2023-04-30T08:36:09;101487.88;;;13.44;78.50
72925;BME280;61070;50.794;7.054;2023-04-30T08:38:35;101487.97;;;13.36;78.31
72925;BME280;61070;50.794;7.054;2023-04-30T08:41:11;101490.63;;;13.37;77.60
72925;BME280;61070;50.794;7.054;2023-04-30T08:43:37;101491.47;;;13.41;81.04
72925;BME280;61070;50.794;7.054;2023-04-30T08:46:04;101487.84;;;13.48;80.47
72925;BME280;61070;50.794;7.054;2023-04-30T08:48:30;101477.22;;;13.48;80.78
72925;BME280;61070;50.794;7.054;2023-04-30T08:50:58;101487.22;;;13.26;80.54
72925;BME280;61070;50.794;7.054;2023-04-30T08:53:24;101482.59;;;13.42;80.04
72925;BME280;61070;50.794;7.054;2023-04-30T08:55:49;101474.75;;;13.30;80.20
72925;BME280;61070;50.794;7.054;2023-04-30T08:58:15;101469.88;;;13.65;80.50
72925;BME280;61070;50.794;7.054;2023-04-30T09:00:40;101466.50;;;13.53;78.98
72925;BME280;61070;50.794;7.054;2023-04-30T09:03:07;101468.06;;;13.69;79.67
72925;BME280;61070;50.794;7.054;2023-04-30T09:05:32;101472.03;;;14.04;78.18
72925;BME280;61070;50.794;7.054;2023-04-30T09:07:58;101474.72;;;14.05;76.09
72925;BME280;61070;50.794;7.054;2023-04-30T09:10:23;101465.69;;;14.14;74.11
72925;BME280;61070;50.794;7.054;2023-04-30T09:13:00;101463.63;;;14.34;74.08
72925;BME280;61070;50.794;7.054;2023-04-30T09:15:26;101461.66;;;14.48;72.92
72925;BME280;61070;50.794;7.054;2023-04-30T09:20:36;101457.41;;;14.91;72.22
72925;BME280;61070;50.794;7.054;2023-04-30T09:23:07;101452.41;;;14.72;70.33
72925;BME280;61070;50.794;7.054;2023-04-30T09:25:40;101448.13;;;14.62;69.82
72925;BME280;61070;50.794;7.054;2023-04-30T09:28:09;101443.44;;;14.76;69.14
72925;BME280;61070;50.794;7.054;2023-04-30T09:30:36;101448.56;;;14.87;68.67
72925;BME280;61070;50.794;7.054;2023-04-30T09:33:01;101439.25;;;15.11;66.47
72925;BME280;61070;50.794;7.054;2023-04-30T09:35:32;101433.56;;;15.29;66.98
72925;BME280;61070;50.794;7.054;2023-04-30T09:38:01;101440.66;;;15.30;65.71
72925;BME280;61070;50.794;7.054;2023-04-30T09:40:37;101433.09;;;15.51;65.67
72925;BME280;61070;50.794;7.054;2023-04-30T09:43:04;101436.41;;;15.66;64.94
72925;BME280;61070;50.794;7.054;2023-04-30T09:45:44;101430.88;;;15.74;63.69
72925;BME280;61070;50.794;7.054;2023-04-30T09:48:11;101418.72;;;16.01;63.95
72925;BME280;61070;50.794;7.054;2023-04-30T09:50:37;101424.09;;;15.99;62.14
72925;BME280;61070;50.794;7.054;2023-04-30T09:53:08;101416.06;;;15.99;61.94
72925;BME280;61070;50.794;7.054;2023-04-30T09:55:35;101419.94;;;16.25;62.38
72925;BME280;61070;50.794;7.054;2023-04-30T09:58:05;101411.94;;;15.85;61.43
72925;BME280;61070;50.794;7.054;2023-04-30T10:00:32;101413.03;;;16.15;61.97
72925;BME280;61070;50.794;7.054;2023-04-30T10:02:58;101420.47;;;16.39;61.74
72925;BME280;61070;50.794;7.054;2023-04-30T10:05:25;101411.53;;;16.40;60.39
72925;BME280;61070;50.794;7.054;2023-04-30T10:07:51;101410.19;;;16.58;59.26
72925;BME280;61070;50.794;7.054;2023-04-30T10:10:17;101405.72;;;16.58;58.69
72925;BME280;61070;50.794;7.054;2023-04-30T10:12:50;101409.84;;;16.73;55.84
72925;BME280;61070;50.794;7.054;2023-04-30T10:15:25;101407.56;;;16.92;55.67
72925;BME280;61070;50.794;7.054;2023-04-30T10:17:56;101396.34;;;17.41;54.71
72925;BME280;61070;50.794;7.054;2023-04-30T10:20:25;101391.59;;;17.22;52.27
72925;BME280;61070;50.794;7.054;2023-04-30T10:22:52;101385.03;;;17.32;53.07
72925;BME280;61070;50.794;7.054;2023-04-30T10:25:17;101376.16;;;17.61;53.78
72925;BME280;61070;50.794;7.054;2023-04-30T10:27:44;101377.03;;;17.61;52.38
72925;BME280;61070;50.794;7.054;2023-04-30T10:30:10;101391.56;;;17.53;52.51
72925;BME280;61070;50.794;7.054;2023-04-30T10:32:43;101377.81;;;17.35;51.20
72925;BME280;61070;50.794;7.054;2023-04-30T10:35:17;101375.22;;;17.31;53.33
72925;BME280;61070;50.794;7.054;2023-04-30T10:37:54;101378.50;;;16.78;52.46
72925;BME280;61070;50.794;7.054;2023-04-30T10:40:21;101367.41;;;17.25;52.42
72925;BME280;61070;50.794;7.054;2023-04-30T10:42:48;101361.53;;;17.41;51.03
72925;BME280;61070;50.794;7.054;2023-04-30T10:45:17;101365.56;;;17.56;49.00
72925;BME280;61070;50.794;7.054;2023-04-30T10:47:44;101354.75;;;18.17;50.71
72925;BME280;61070;50.794;7.054;2023-04-30T10:50:10;101359.53;;;18.35;48.06
72925;BME280;61070;50.794;7.054;2023-04-30T10:52:37;101358.28;;;18.72;46.63
72925;BME280;61070;50.794;7.054;2023-04-30T10:55:06;101351.94;;;19.23;46.44
72925;BME280;61070;50.794;7.054;2023-04-30T10:57:40;101350.19;;;19.22;43.51
72925;BME280;61070;50.794;7.054;2023-04-30T11:02:42;101331.22;;;19.03;44.21
72925;BME280;61070;50.794;7.054;2023-04-30T11:05:10;101332.75;;;19.33;45.12
72925;BME280;61070;50.794;7.054;2023-04-30T11:07:35;101325.53;;;20.02;44.59
72925;BME280;61070;50.794;7.054;2023-04-30T11:10:01;101317.47;;;20.02;43.22
72925;BME280;61070;50.794;7.054;2023-04-30T11:12:27;101315.78;;;19.55;42.37
72925;BME280;61070;50.794;7.054;2023-04-30T11:15:06;101320.06;;;19.13;44.20
72925;BME280;61070;50.794;7.054;2023-04-30T11:17:32;101315.97;;;18.27;44.19
72925;BME280;61070;50.794;7.054;2023-04-30T11:19:59;101316.97;;;18.24;44.48
72925;BME280;61070;50.794;7.054;2023-04-30T11:22:26;101317.97;;;18.47;45.55
72925;BME280;61070;50.794;7.054;2023-04-30T11:25:08;101305.94;;;19.08;45.76
72925;BME280;61070;50.794;7.054;2023-04-30T11:27:38;101305.19;;;19.05;43.92
72925;BME280;61070;50.794;7.054;2023-04-30T11:30:10;101308.81;;;19.51;44.26
72925;BME280;61070;50.794;7.054;2023-04-30T11:32:37;101307.28;;;19.67;43.08
72925;BME280;61070;50.794;7.054;2023-04-30T11:35:03;101306.47;;;19.65;42.55
72925;BME280;61070;50.794;7.054;2023-04-30T11:39:56;101311.84;;;19.87;39.98
72925;BME280;61070;50.794;7.054;2023-04-30T11:42:21;101294.19;;;19.58;40.52
72925;BME280;61070;50.794;7.054;2023-04-30T11:44:46;101293.31;;;19.57;41.16
72925;BME280;61070;50.794;7.054;2023-04-30T11:47:12;101290.41;;;19.63;42.44
72925;BME280;61070;50.794;7.054;2023-04-30T11:49:38;101285.09;;;19.84;43.32
72925;BME280;61070;50.794;7.054;2023-04-30T11:52:04;101292.66;;;19.74;40.78
72925;BME280;61070;50.794;7.054;2023-04-30T11:54:31;101293.97;;;19.64;41.41
72925;BME280;61070;50.794;7.054;2023-04-30T11:56:56;101280.53;;;19.40;42.91
72925;BME280;61070;50.794;7.054;2023-04-30T11:59:28;101281.69;;;19.33;41.97
72925;BME280;61070;50.794;7.054;2023-04-30T12:01:53;101283.63;;;19.30;42.32
72925;BME280;61070;50.794;7.054;2023-04-30T12:04:18;101282.09;;;19.23;45.02
72925;BME280;61070;50.794;7.054;2023-04-30T12:06:44;101273.91;;;19.04;42.77
72925;BME280;61070;50.794;7.054;2023-04-30T12:09:09;101277.09;;;19.37;42.21
72925;BME280;61070;50.794;7.054;2023-04-30T12:11:37;101263.38;;;19.21;40.88
72925;BME280;61070;50.794;7.054;2023-04-30T12:14:04;101257.50;;;19.57;41.79
72925;BME280;61070;50.794;7.054;2023-04-30T12:16:57;101255.69;;;19.79;40.77
72925;BME280;61070;50.794;7.054;2023-04-30T12:19:24;101250.69;;;19.70;40.68
72925;BME280;61070;50.794;7.054;2023-04-30T12:21:49;101253.34;;;19.93;40.55
72925;BME280;61070;50.794;7.054;2023-04-30T12:24:17;101254.16;;;20.16;39.28
72925;BME280;61070;50.794;7.054;2023-04-30T12:26:42;101243.56;;;20.53;38.80
72925;BME280;61070;50.794;7.054;2023-04-30T12:29:16;101247.94;;;20.76;39.70
72925;BME280;61070;50.794;7.054;2023-04-30T12:31:42;101248.97;;;20.11;38.26
72925;BME280;61070;50.794;7.054;2023-04-30T12:34:13;101244.16;;;20.60;39.08
72925;BME280;61070;50.794;7.054;2023-04-30T12:36:39;101237.66;;;20.66;38.92
72925;BME280;61070;50.794;7.054;2023-04-30T12:39:09;101241.97;;;20.88;40.14
72925;BME280;61070;50.794;7.054;2023-04-30T12:41:36;101235.41;;;20.75;39.38
72925;BME280;61070;50.794;7.054;2023-04-30T12:44:22;101239.66;;;20.60;39.43
72925;BME280;61070;50.794;7.054;2023-04-30T12:46:49;101226.13;;;21.39;40.61
72925;BME280;61070;50.794;7.054;2023-04-30T12:49:25;101236.91;;;21.58;37.60
72925;BME280;61070;50.794;7.054;2023-04-30T12:51:55;101222.28;;;21.63;38.38
72925;BME280;61070;50.794;7.054;2023-04-30T12:54:25;101230.84;;;21.71;36.99
72925;BME280;61070;50.794;7.054;2023-04-30T12:57:07;101229.50;;;21.80;37.59
72925;BME280;61070;50.794;7.054;2023-04-30T12:59:35;101228.31;;;21.86;36.39
72925;BME280;61070;50.794;7.054;2023-04-30T13:02:12;101218.97;;;21.75;36.91
72925;BME280;61070;50.794;7.054;2023-04-30T13:04:40;101217.94;;;21.95;37.51
72925;BME280;61070;50.794;7.054;2023-04-30T13:07:06;101209.69;;;21.45;36.99
72925;BME280;61070;50.794;7.054;2023-04-30T13:09:33;101211.34;;;21.47;39.06
72925;BME280;61070;50.794;7.054;2023-04-30T13:11:58;101202.47;;;21.08;38.41
72925;BME280;61070;50.794;7.054;2023-04-30T13:14:23;101198.50;;;20.77;38.25
72925;BME280;61070;50.794;7.054;2023-04-30T13:16:49;101207.78;;;20.51;39.01